Herzlich willkommen!

Am freundlichen Bodensee-Flugplatz zwischen Schwarzwald, Rhein und Alpen.

Aktuelles

18.10.2017
Winterpause
In der Zeit von 18. Dez. 2017 bis 31. Jan. 2018 ist der Verkehrslandeplatz von der Betriebspflicht befreit. In dieser Zeit gilt eine PPR Regelung. Wir wünschen Allen ein schönes Weihnachtsfest und ein gutes neues Jahr.
— Flugleitung EDTZ

Live am Platz

Die Bilder unserer Webcams werden alle 5 Minuten aktualisiert.

Sonnenaufgang:

06:58 UTC / 07:58 Lokal

Sonnenuntergang:

16:12 UTC / 17:12 Lokal

METAR (23.01.2018 02:20 UTC):

EDNY 230120Z AUTO VRB02KT 9999 SCT021 BKN029 OVC034 06/06 Q1021
MVFR

TAF (23.01.2018 00:00 UTC):

TAF EDNY 222300Z 2300/2324 24005KT 9999 BKN045 TEMPO 2300/2304 RA BKN013 BECMG 2316/2319 18005KT

Alle Angaben unverbindlich und ohne Gewähr. Zeiten genähert.

Für den Verkehrslandeplatz Konstanz werden keine offiziellen Wetterinformationen herausgegeben. Daher werden zur Orientierung Daten des nahegelegenen Flughafens Friedrichshafen dargestellt.